sensor_id;sensor_type;location;lat;lon;timestamp;P1;durP1;ratioP1;P2;durP2;ratioP2
15454;SDS011;21057;51.024;7.540;2022-09-27T00:00:32;26.67;;;25.13;;
15454;SDS011;21057;51.024;7.540;2022-09-27T00:03:00;27.53;;;25.90;;
15454;SDS011;21057;51.024;7.540;2022-09-27T00:05:27;26.43;;;24.53;;
15454;SDS011;21057;51.024;7.540;2022-09-27T00:07:54;27.33;;;25.63;;
15454;SDS011;21057;51.024;7.540;2022-09-27T00:10:22;27.27;;;25.67;;
15454;SDS011;21057;51.024;7.540;2022-09-27T00:12:49;28.07;;;26.37;;
15454;SDS011;21057;51.024;7.540;2022-09-27T00:15:17;27.70;;;25.93;;
15454;SDS011;21057;51.024;7.540;2022-09-27T00:17:45;27.57;;;26.07;;
15454;SDS011;21057;51.024;7.540;2022-09-27T00:20:16;29.03;;;27.20;;
15454;SDS011;21057;51.024;7.540;2022-09-27T00:22:44;29.50;;;27.63;;
15454;SDS011;21057;51.024;7.540;2022-09-27T00:25:12;28.77;;;27.17;;
15454;SDS011;21057;51.024;7.540;2022-09-27T00:27:39;25.80;;;24.23;;
15454;SDS011;21057;51.024;7.540;2022-09-27T00:30:06;26.93;;;25.33;;
15454;SDS011;21057;51.024;7.540;2022-09-27T00:32:36;27.20;;;25.60;;
15454;SDS011;21057;51.024;7.540;2022-09-27T00:35:04;26.63;;;24.93;;
15454;SDS011;21057;51.024;7.540;2022-09-27T00:37:32;26.80;;;25.10;;
15454;SDS011;21057;51.024;7.540;2022-09-27T00:39:59;26.47;;;24.87;;
15454;SDS011;21057;51.024;7.540;2022-09-27T00:42:27;27.03;;;25.23;;
15454;SDS011;21057;51.024;7.540;2022-09-27T00:47:42;27.70;;;26.10;;
15454;SDS011;21057;51.024;7.540;2022-09-27T00:50:22;26.57;;;24.97;;
15454;SDS011;21057;51.024;7.540;2022-09-27T00:53:02;26.30;;;24.70;;
15454;SDS011;21057;51.024;7.540;2022-09-27T00:55:35;26.53;;;24.73;;
15454;SDS011;21057;51.024;7.540;2022-09-27T00:58:05;25.60;;;23.90;;
15454;SDS011;21057;51.024;7.540;2022-09-27T01:00:33;25.80;;;24.10;;
15454;SDS011;21057;51.024;7.540;2022-09-27T01:03:03;24.87;;;23.17;;
15454;SDS011;21057;51.024;7.540;2022-09-27T01:05:34;25.90;;;24.30;;
15454;SDS011;21057;51.024;7.540;2022-09-27T01:08:01;26.53;;;24.80;;
15454;SDS011;21057;51.024;7.540;2022-09-27T01:10:31;26.60;;;24.60;;
15454;SDS011;21057;51.024;7.540;2022-09-27T01:13:06;26.07;;;24.57;;
15454;SDS011;21057;51.024;7.540;2022-09-27T01:15:39;27.10;;;25.30;;
15454;SDS011;21057;51.024;7.540;2022-09-27T01:18:16;27.17;;;25.57;;
15454;SDS011;21057;51.024;7.540;2022-09-27T01:21:04;25.97;;;24.20;;
15454;SDS011;21057;51.024;7.540;2022-09-27T01:23:53;26.50;;;25.00;;
15454;SDS011;21057;51.024;7.540;2022-09-27T01:26:44;27.73;;;25.93;;
15454;SDS011;21057;51.024;7.540;2022-09-27T01:29:34;26.50;;;24.90;;
15454;SDS011;21057;51.024;7.540;2022-09-27T01:32:15;26.83;;;25.10;;
15454;SDS011;21057;51.024;7.540;2022-09-27T01:34:46;27.40;;;25.30;;
15454;SDS011;21057;51.024;7.540;2022-09-27T01:37:21;27.57;;;24.90;;
15454;SDS011;21057;51.024;7.540;2022-09-27T01:39:56;25.50;;;24.00;;
15454;SDS011;21057;51.024;7.540;2022-09-27T01:42:28;27.20;;;25.23;;
15454;SDS011;21057;51.024;7.540;2022-09-27T01:45:01;26.70;;;25.10;;
15454;SDS011;21057;51.024;7.540;2022-09-27T01:47:38;27.93;;;25.87;;
15454;SDS011;21057;51.024;7.540;2022-09-27T01:50:10;25.73;;;24.13;;
15454;SDS011;21057;51.024;7.540;2022-09-27T01:52:40;26.03;;;24.33;;
15454;SDS011;21057;51.024;7.540;2022-09-27T01:55:14;26.90;;;25.30;;
15454;SDS011;21057;51.024;7.540;2022-09-27T01:57:45;27.77;;;26.07;;
15454;SDS011;21057;51.024;7.540;2022-09-27T02:00:15;27.20;;;25.53;;
15454;SDS011;21057;51.024;7.540;2022-09-27T02:02:45;27.40;;;25.70;;
15454;SDS011;21057;51.024;7.540;2022-09-27T02:05:15;27.53;;;25.73;;
15454;SDS011;21057;51.024;7.540;2022-09-27T02:07:46;28.23;;;26.27;;
15454;SDS011;21057;51.024;7.540;2022-09-27T02:10:19;29.23;;;27.13;;
15454;SDS011;21057;51.024;7.540;2022-09-27T02:12:50;27.60;;;25.93;;
15454;SDS011;21057;51.024;7.540;2022-09-27T02:15:21;28.20;;;26.53;;
15454;SDS011;21057;51.024;7.540;2022-09-27T02:17:52;28.80;;;27.07;;
15454;SDS011;21057;51.024;7.540;2022-09-27T02:20:25;28.77;;;26.73;;
15454;SDS011;21057;51.024;7.540;2022-09-27T02:22:56;27.10;;;25.40;;
15454;SDS011;21057;51.024;7.540;2022-09-27T02:25:34;27.37;;;25.87;;
15454;SDS011;21057;51.024;7.540;2022-09-27T02:28:08;26.50;;;25.10;;
15454;SDS011;21057;51.024;7.540;2022-09-27T02:30:43;26.83;;;25.33;;
15454;SDS011;21057;51.024;7.540;2022-09-27T02:33:12;26.40;;;24.90;;
15454;SDS011;21057;51.024;7.540;2022-09-27T02:35:39;25.17;;;23.67;;
15454;SDS011;21057;51.024;7.540;2022-09-27T02:38:06;26.90;;;25.30;;
15454;SDS011;21057;51.024;7.540;2022-09-27T02:40:34;26.77;;;24.97;;
15454;SDS011;21057;51.024;7.540;2022-09-27T02:43:07;27.47;;;25.77;;
15454;SDS011;21057;51.024;7.540;2022-09-27T02:45:35;26.67;;;24.87;;
15454;SDS011;21057;51.024;7.540;2022-09-27T02:48:16;26.93;;;25.20;;
15454;SDS011;21057;51.024;7.540;2022-09-27T02:50:57;27.43;;;25.50;;
15454;SDS011;21057;51.024;7.540;2022-09-27T02:53:40;26.67;;;25.00;;
15454;SDS011;21057;51.024;7.540;2022-09-27T02:56:22;26.93;;;25.23;;
15454;SDS011;21057;51.024;7.540;2022-09-27T02:58:57;28.03;;;26.33;;
15454;SDS011;21057;51.024;7.540;2022-09-27T03:01:33;28.17;;;26.47;;
15454;SDS011;21057;51.024;7.540;2022-09-27T03:04:11;27.23;;;25.63;;
15454;SDS011;21057;51.024;7.540;2022-09-27T03:06:43;27.83;;;26.23;;
15454;SDS011;21057;51.024;7.540;2022-09-27T03:09:13;28.13;;;26.37;;
15454;SDS011;21057;51.024;7.540;2022-09-27T03:11:43;27.13;;;25.43;;
15454;SDS011;21057;51.024;7.540;2022-09-27T03:14:10;28.33;;;26.57;;
15454;SDS011;21057;51.024;7.540;2022-09-27T03:16:37;26.80;;;25.30;;
15454;SDS011;21057;51.024;7.540;2022-09-27T03:19:04;27.60;;;25.83;;
15454;SDS011;21057;51.024;7.540;2022-09-27T03:21:33;27.67;;;26.10;;
15454;SDS011;21057;51.024;7.540;2022-09-27T03:24:00;28.43;;;26.83;;
15454;SDS011;21057;51.024;7.540;2022-09-27T03:26:28;28.67;;;27.07;;
15454;SDS011;21057;51.024;7.540;2022-09-27T03:28:55;29.33;;;27.73;;
15454;SDS011;21057;51.024;7.540;2022-09-27T03:31:22;29.23;;;27.73;;
15454;SDS011;21057;51.024;7.540;2022-09-27T03:33:49;28.03;;;26.23;;
15454;SDS011;21057;51.024;7.540;2022-09-27T03:36:16;32.03;;;30.33;;
15454;SDS011;21057;51.024;7.540;2022-09-27T03:38:44;34.40;;;32.60;;
15454;SDS011;21057;51.024;7.540;2022-09-27T03:41:11;33.07;;;31.17;;
15454;SDS011;21057;51.024;7.540;2022-09-27T03:43:38;33.37;;;31.27;;
15454;SDS011;21057;51.024;7.540;2022-09-27T03:46:05;29.93;;;27.77;;
15454;SDS011;21057;51.024;7.540;2022-09-27T03:48:32;29.07;;;27.33;;
15454;SDS011;21057;51.024;7.540;2022-09-27T03:50:59;29.37;;;27.87;;
15454;SDS011;21057;51.024;7.540;2022-09-27T03:53:26;27.20;;;25.70;;
15454;SDS011;21057;51.024;7.540;2022-09-27T03:55:54;28.70;;;27.20;;
15454;SDS011;21057;51.024;7.540;2022-09-27T03:58:21;33.00;;;31.20;;
15454;SDS011;21057;51.024;7.540;2022-09-27T04:00:48;30.83;;;29.23;;
15454;SDS011;21057;51.024;7.540;2022-09-27T04:03:15;30.27;;;28.60;;
15454;SDS011;21057;51.024;7.540;2022-09-27T04:05:44;33.73;;;31.90;;
15454;SDS011;21057;51.024;7.540;2022-09-27T04:08:11;28.67;;;27.07;;
15454;SDS011;21057;51.024;7.540;2022-09-27T04:10:38;31.53;;;29.83;;
15454;SDS011;21057;51.024;7.540;2022-09-27T04:13:06;31.17;;;29.20;;
15454;SDS011;21057;51.024;7.540;2022-09-27T04:15:33;30.60;;;28.60;;
15454;SDS011;21057;51.024;7.540;2022-09-27T04:18:01;31.57;;;29.17;;
15454;SDS011;21057;51.024;7.540;2022-09-27T04:20:28;30.07;;;28.27;;
15454;SDS011;21057;51.024;7.540;2022-09-27T04:22:55;30.17;;;28.13;;
15454;SDS011;21057;51.024;7.540;2022-09-27T04:25:22;30.80;;;28.90;;
15454;SDS011;21057;51.024;7.540;2022-09-27T04:27:49;29.90;;;28.10;;
15454;SDS011;21057;51.024;7.540;2022-09-27T04:30:20;31.27;;;29.47;;
15454;SDS011;21057;51.024;7.540;2022-09-27T04:32:49;35.07;;;33.07;;
15454;SDS011;21057;51.024;7.540;2022-09-27T04:35:16;34.07;;;32.07;;
15454;SDS011;21057;51.024;7.540;2022-09-27T04:38:01;33.70;;;31.67;;
15454;SDS011;21057;51.024;7.540;2022-09-27T04:40:28;34.03;;;31.87;;
15454;SDS011;21057;51.024;7.540;2022-09-27T04:42:55;33.27;;;31.27;;
15454;SDS011;21057;51.024;7.540;2022-09-27T04:45:23;32.80;;;30.70;;
15454;SDS011;21057;51.024;7.540;2022-09-27T04:47:50;35.67;;;33.67;;
15454;SDS011;21057;51.024;7.540;2022-09-27T04:50:18;35.47;;;32.90;;
15454;SDS011;21057;51.024;7.540;2022-09-27T04:52:48;33.00;;;31.20;;
15454;SDS011;21057;51.024;7.540;2022-09-27T04:55:17;34.87;;;32.77;;
15454;SDS011;21057;51.024;7.540;2022-09-27T04:57:45;32.83;;;30.90;;
15454;SDS011;21057;51.024;7.540;2022-09-27T05:00:12;32.00;;;29.70;;
15454;SDS011;21057;51.024;7.540;2022-09-27T05:02:42;33.00;;;31.00;;
15454;SDS011;21057;51.024;7.540;2022-09-27T05:05:09;33.50;;;31.50;;
15454;SDS011;21057;51.024;7.540;2022-09-27T05:07:37;31.90;;;30.00;;
15454;SDS011;21057;51.024;7.540;2022-09-27T05:10:04;31.33;;;29.43;;
15454;SDS011;21057;51.024;7.540;2022-09-27T05:12:32;31.57;;;29.57;;
15454;SDS011;21057;51.024;7.540;2022-09-27T05:15:00;32.53;;;30.53;;
15454;SDS011;21057;51.024;7.540;2022-09-27T05:17:27;32.27;;;30.27;;
15454;SDS011;21057;51.024;7.540;2022-09-27T05:19:55;32.27;;;30.37;;
15454;SDS011;21057;51.024;7.540;2022-09-27T05:22:23;32.57;;;30.57;;
15454;SDS011;21057;51.024;7.540;2022-09-27T05:24:50;33.33;;;30.93;;
15454;SDS011;21057;51.024;7.540;2022-09-27T05:27:17;34.63;;;32.53;;
15454;SDS011;21057;51.024;7.540;2022-09-27T05:29:44;34.67;;;32.53;;
15454;SDS011;21057;51.024;7.540;2022-09-27T05:32:11;35.60;;;33.37;;
15454;SDS011;21057;51.024;7.540;2022-09-27T05:34:39;35.53;;;33.40;;
15454;SDS011;21057;51.024;7.540;2022-09-27T05:37:08;34.97;;;32.97;;
15454;SDS011;21057;51.024;7.540;2022-09-27T05:39:35;35.27;;;32.97;;
15454;SDS011;21057;51.024;7.540;2022-09-27T05:42:02;34.37;;;32.37;;
15454;SDS011;21057;51.024;7.540;2022-09-27T05:44:31;31.43;;;29.23;;
15454;SDS011;21057;51.024;7.540;2022-09-27T05:46:59;32.00;;;30.00;;
15454;SDS011;21057;51.024;7.540;2022-09-27T05:49:28;32.70;;;30.20;;
15454;SDS011;21057;51.024;7.540;2022-09-27T05:51:55;32.43;;;30.43;;
15454;SDS011;21057;51.024;7.540;2022-09-27T05:54:24;34.27;;;32.00;;
15454;SDS011;21057;51.024;7.540;2022-09-27T05:56:52;32.23;;;30.23;;
15454;SDS011;21057;51.024;7.540;2022-09-27T05:59:22;32.40;;;30.40;;
15454;SDS011;21057;51.024;7.540;2022-09-27T06:01:49;34.17;;;31.63;;
15454;SDS011;21057;51.024;7.540;2022-09-27T06:04:17;33.53;;;31.07;;
15454;SDS011;21057;51.024;7.540;2022-09-27T06:06:44;33.90;;;31.70;;
15454;SDS011;21057;51.024;7.540;2022-09-27T06:09:11;31.57;;;29.53;;
15454;SDS011;21057;51.024;7.540;2022-09-27T06:11:41;31.57;;;29.40;;
15454;SDS011;21057;51.024;7.540;2022-09-27T06:14:09;32.80;;;30.80;;
15454;SDS011;21057;51.024;7.540;2022-09-27T06:16:36;32.30;;;29.77;;
15454;SDS011;21057;51.024;7.540;2022-09-27T06:19:03;32.03;;;29.53;;
15454;SDS011;21057;51.024;7.540;2022-09-27T06:21:31;31.87;;;29.80;;
15454;SDS011;21057;51.024;7.540;2022-09-27T06:23:58;32.80;;;30.67;;
15454;SDS011;21057;51.024;7.540;2022-09-27T06:26:25;31.97;;;30.03;;
15454;SDS011;21057;51.024;7.540;2022-09-27T06:28:54;33.00;;;31.00;;
15454;SDS011;21057;51.024;7.540;2022-09-27T06:31:21;33.80;;;31.30;;
15454;SDS011;21057;51.024;7.540;2022-09-27T06:33:48;30.77;;;28.77;;
15454;SDS011;21057;51.024;7.540;2022-09-27T06:36:15;31.17;;;29.47;;
15454;SDS011;21057;51.024;7.540;2022-09-27T06:38:43;32.47;;;30.20;;
15454;SDS011;21057;51.024;7.540;2022-09-27T06:41:12;33.67;;;30.77;;
15454;SDS011;21057;51.024;7.540;2022-09-27T06:43:39;32.80;;;30.60;;
15454;SDS011;21057;51.024;7.540;2022-09-27T06:46:08;30.00;;;28.20;;
15454;SDS011;21057;51.024;7.540;2022-09-27T06:48:35;32.77;;;30.63;;
15454;SDS011;21057;51.024;7.540;2022-09-27T06:51:03;30.70;;;28.90;;
15454;SDS011;21057;51.024;7.540;2022-09-27T06:53:30;31.57;;;29.20;;
15454;SDS011;21057;51.024;7.540;2022-09-27T06:55:57;27.90;;;26.30;;
15454;SDS011;21057;51.024;7.540;2022-09-27T06:58:25;29.30;;;27.50;;
15454;SDS011;21057;51.024;7.540;2022-09-27T07:01:11;27.77;;;26.17;;
15454;SDS011;21057;51.024;7.540;2022-09-27T07:03:38;30.17;;;28.43;;
15454;SDS011;21057;51.024;7.540;2022-09-27T07:06:10;26.67;;;25.13;;
15454;SDS011;21057;51.024;7.540;2022-09-27T07:08:42;30.13;;;28.00;;
15454;SDS011;21057;51.024;7.540;2022-09-27T07:11:09;28.93;;;27.20;;
15454;SDS011;21057;51.024;7.540;2022-09-27T07:13:36;29.67;;;27.97;;
15454;SDS011;21057;51.024;7.540;2022-09-27T07:16:06;28.40;;;26.60;;
15454;SDS011;21057;51.024;7.540;2022-09-27T07:18:37;27.57;;;25.97;;
15454;SDS011;21057;51.024;7.540;2022-09-27T07:21:04;29.27;;;27.37;;
15454;SDS011;21057;51.024;7.540;2022-09-27T07:23:33;27.37;;;25.47;;
15454;SDS011;21057;51.024;7.540;2022-09-27T07:26:01;28.57;;;26.57;;
15454;SDS011;21057;51.024;7.540;2022-09-27T07:28:31;28.37;;;26.43;;
15454;SDS011;21057;51.024;7.540;2022-09-27T07:30:58;27.93;;;26.03;;
15454;SDS011;21057;51.024;7.540;2022-09-27T07:33:26;29.90;;;27.70;;
15454;SDS011;21057;51.024;7.540;2022-09-27T07:35:54;27.53;;;25.73;;
15454;SDS011;21057;51.024;7.540;2022-09-27T07:38:21;28.03;;;26.20;;
15454;SDS011;21057;51.024;7.540;2022-09-27T07:40:49;29.20;;;27.23;;
15454;SDS011;21057;51.024;7.540;2022-09-27T07:43:17;29.53;;;27.17;;
15454;SDS011;21057;51.024;7.540;2022-09-27T07:45:44;29.27;;;27.20;;
15454;SDS011;21057;51.024;7.540;2022-09-27T07:48:13;28.27;;;26.57;;
15454;SDS011;21057;51.024;7.540;2022-09-27T07:50:41;26.83;;;25.13;;
15454;SDS011;21057;51.024;7.540;2022-09-27T07:53:09;30.17;;;28.17;;
15454;SDS011;21057;51.024;7.540;2022-09-27T07:55:38;31.93;;;29.57;;
15454;SDS011;21057;51.024;7.540;2022-09-27T07:58:06;28.83;;;27.13;;
15454;SDS011;21057;51.024;7.540;2022-09-27T08:00:34;29.73;;;28.00;;
15454;SDS011;21057;51.024;7.540;2022-09-27T08:03:03;28.37;;;26.67;;
15454;SDS011;21057;51.024;7.540;2022-09-27T08:05:32;28.97;;;27.17;;
15454;SDS011;21057;51.024;7.540;2022-09-27T08:08:00;28.63;;;27.03;;
15454;SDS011;21057;51.024;7.540;2022-09-27T08:10:29;29.90;;;27.20;;
15454;SDS011;21057;51.024;7.540;2022-09-27T08:12:56;29.50;;;27.30;;
15454;SDS011;21057;51.024;7.540;2022-09-27T08:15:23;29.27;;;27.47;;
15454;SDS011;21057;51.024;7.540;2022-09-27T08:17:52;28.37;;;26.57;;
15454;SDS011;21057;51.024;7.540;2022-09-27T08:20:19;28.90;;;27.07;;
15454;SDS011;21057;51.024;7.540;2022-09-27T08:22:47;27.80;;;26.00;;
15454;SDS011;21057;51.024;7.540;2022-09-27T08:25:14;26.37;;;24.77;;
15454;SDS011;21057;51.024;7.540;2022-09-27T08:27:43;29.07;;;27.03;;
15454;SDS011;21057;51.024;7.540;2022-09-27T08:30:19;28.37;;;26.67;;
15454;SDS011;21057;51.024;7.540;2022-09-27T08:32:46;29.10;;;26.70;;
15454;SDS011;21057;51.024;7.540;2022-09-27T08:35:13;26.83;;;25.17;;
15454;SDS011;21057;51.024;7.540;2022-09-27T08:37:40;25.80;;;24.20;;
15454;SDS011;21057;51.024;7.540;2022-09-27T08:40:08;26.40;;;24.77;;
15454;SDS011;21057;51.024;7.540;2022-09-27T08:42:44;27.60;;;25.80;;
15454;SDS011;21057;51.024;7.540;2022-09-27T08:45:21;27.80;;;25.87;;
15454;SDS011;21057;51.024;7.540;2022-09-27T08:47:54;25.93;;;24.43;;
15454;SDS011;21057;51.024;7.540;2022-09-27T08:50:25;26.97;;;25.30;;
15454;SDS011;21057;51.024;7.540;2022-09-27T08:52:55;27.43;;;25.83;;
15454;SDS011;21057;51.024;7.540;2022-09-27T08:55:27;27.60;;;25.57;;
15454;SDS011;21057;51.024;7.540;2022-09-27T08:58:03;25.43;;;24.03;;
15454;SDS011;21057;51.024;7.540;2022-09-27T09:00:39;27.67;;;26.07;;
15454;SDS011;21057;51.024;7.540;2022-09-27T09:03:08;28.23;;;26.53;;
15454;SDS011;21057;51.024;7.540;2022-09-27T09:05:45;27.13;;;25.63;;
15454;SDS011;21057;51.024;7.540;2022-09-27T09:08:22;27.20;;;25.50;;
15454;SDS011;21057;51.024;7.540;2022-09-27T09:10:58;27.03;;;25.00;;
15454;SDS011;21057;51.024;7.540;2022-09-27T09:14:01;26.87;;;25.23;;
15454;SDS011;21057;51.024;7.540;2022-09-27T09:16:50;27.80;;;26.13;;
15454;SDS011;21057;51.024;7.540;2022-09-27T09:19:30;26.73;;;25.10;;
15454;SDS011;21057;51.024;7.540;2022-09-27T09:22:13;27.27;;;25.57;;
15454;SDS011;21057;51.024;7.540;2022-09-27T09:24:56;27.73;;;25.53;;
15454;SDS011;21057;51.024;7.540;2022-09-27T09:27:32;26.23;;;24.63;;
15454;SDS011;21057;51.024;7.540;2022-09-27T09:30:17;28.77;;;26.57;;
15454;SDS011;21057;51.024;7.540;2022-09-27T09:32:49;26.93;;;25.33;;
15454;SDS011;21057;51.024;7.540;2022-09-27T09:35:35;26.13;;;24.63;;
15454;SDS011;21057;51.024;7.540;2022-09-27T09:38:09;26.07;;;24.23;;
15454;SDS011;21057;51.024;7.540;2022-09-27T09:40:39;27.03;;;25.53;;
15454;SDS011;21057;51.024;7.540;2022-09-27T09:43:12;26.23;;;24.63;;
15454;SDS011;21057;51.024;7.540;2022-09-27T09:45:44;26.43;;;24.80;;
15454;SDS011;21057;51.024;7.540;2022-09-27T09:48:15;26.07;;;24.43;;
15454;SDS011;21057;51.024;7.540;2022-09-27T09:50:50;26.13;;;24.63;;
15454;SDS011;21057;51.024;7.540;2022-09-27T09:53:20;25.20;;;23.80;;
15454;SDS011;21057;51.024;7.540;2022-09-27T09:56:03;24.73;;;22.93;;
15454;SDS011;21057;51.024;7.540;2022-09-27T09:58:34;25.77;;;24.37;;
15454;SDS011;21057;51.024;7.540;2022-09-27T10:01:10;23.47;;;22.17;;
15454;SDS011;21057;51.024;7.540;2022-09-27T10:03:41;24.20;;;22.90;;
15454;SDS011;21057;51.024;7.540;2022-09-27T10:06:08;24.80;;;23.20;;
15454;SDS011;21057;51.024;7.540;2022-09-27T10:08:36;24.37;;;23.07;;
15454;SDS011;21057;51.024;7.540;2022-09-27T10:11:04;24.07;;;22.47;;
15454;SDS011;21057;51.024;7.540;2022-09-27T10:13:32;25.80;;;24.40;;
15454;SDS011;21057;51.024;7.540;2022-09-27T10:16:04;23.93;;;22.30;;
15454;SDS011;21057;51.024;7.540;2022-09-27T10:18:35;22.10;;;20.90;;
15454;SDS011;21057;51.024;7.540;2022-09-27T10:21:06;23.73;;;22.03;;
15454;SDS011;21057;51.024;7.540;2022-09-27T10:23:37;24.00;;;22.70;;
15454;SDS011;21057;51.024;7.540;2022-09-27T10:26:29;24.43;;;23.07;;
15454;SDS011;21057;51.024;7.540;2022-09-27T10:28:56;24.03;;;22.63;;
15454;SDS011;21057;51.024;7.540;2022-09-27T10:31:23;24.17;;;22.87;;
15454;SDS011;21057;51.024;7.540;2022-09-27T10:34:02;24.73;;;23.33;;
15454;SDS011;21057;51.024;7.540;2022-09-27T10:36:31;23.70;;;22.40;;
15454;SDS011;21057;51.024;7.540;2022-09-27T10:38:59;23.93;;;22.63;;
15454;SDS011;21057;51.024;7.540;2022-09-27T10:41:31;23.80;;;22.30;;
15454;SDS011;21057;51.024;7.540;2022-09-27T10:46:49;23.83;;;22.13;;
15454;SDS011;21057;51.024;7.540;2022-09-27T10:49:19;22.70;;;21.40;;
15454;SDS011;21057;51.024;7.540;2022-09-27T10:51:50;22.43;;;21.10;;
15454;SDS011;21057;51.024;7.540;2022-09-27T10:54:21;22.47;;;21.07;;
15454;SDS011;21057;51.024;7.540;2022-09-27T10:56:58;22.20;;;20.90;;
15454;SDS011;21057;51.024;7.540;2022-09-27T10:59:28;22.70;;;21.40;;
15454;SDS011;21057;51.024;7.540;2022-09-27T11:01:58;22.40;;;21.10;;
15454;SDS011;21057;51.024;7.540;2022-09-27T11:04:28;22.53;;;21.23;;
15454;SDS011;21057;51.024;7.540;2022-09-27T11:07:06;23.30;;;21.80;;
15454;SDS011;21057;51.024;7.540;2022-09-27T11:09:53;24.20;;;22.70;;
15454;SDS011;21057;51.024;7.540;2022-09-27T11:12:27;23.07;;;21.67;;
15454;SDS011;21057;51.024;7.540;2022-09-27T11:14:57;23.03;;;21.60;;
15454;SDS011;21057;51.024;7.540;2022-09-27T11:17:30;20.97;;;19.77;;
15454;SDS011;21057;51.024;7.540;2022-09-27T11:20:13;23.53;;;21.83;;
15454;SDS011;21057;51.024;7.540;2022-09-27T11:25:48;23.43;;;22.13;;
15454;SDS011;21057;51.024;7.540;2022-09-27T11:28:31;23.70;;;22.20;;
15454;SDS011;21057;51.024;7.540;2022-09-27T11:31:10;22.97;;;21.67;;
15454;SDS011;21057;51.024;7.540;2022-09-27T11:34:00;22.47;;;21.20;;
15454;SDS011;21057;51.024;7.540;2022-09-27T11:36:44;21.17;;;19.97;;
15454;SDS011;21057;51.024;7.540;2022-09-27T11:39:21;22.13;;;20.83;;
15454;SDS011;21057;51.024;7.540;2022-09-27T11:41:58;22.90;;;21.60;;
15454;SDS011;21057;51.024;7.540;2022-09-27T11:44:43;22.73;;;21.20;;
15454;SDS011;21057;51.024;7.540;2022-09-27T11:47:32;23.70;;;22.30;;
15454;SDS011;21057;51.024;7.540;2022-09-27T11:50:14;23.30;;;22.00;;
15454;SDS011;21057;51.024;7.540;2022-09-27T11:53:02;20.80;;;19.60;;
15454;SDS011;21057;51.024;7.540;2022-09-27T11:55:42;22.50;;;21.23;;
15454;SDS011;21057;51.024;7.540;2022-09-27T11:58:19;22.30;;;20.97;;
15454;SDS011;21057;51.024;7.540;2022-09-27T12:00:56;21.77;;;20.57;;
15454;SDS011;21057;51.024;7.540;2022-09-27T12:06:31;23.67;;;22.37;;
15454;SDS011;21057;51.024;7.540;2022-09-27T12:09:05;23.13;;;21.83;;
15454;SDS011;21057;51.024;7.540;2022-09-27T12:11:36;24.87;;;23.00;;
15454;SDS011;21057;51.024;7.540;2022-09-27T12:14:10;24.30;;;22.90;;
15454;SDS011;21057;51.024;7.540;2022-09-27T12:16:44;24.30;;;22.80;;
15454;SDS011;21057;51.024;7.540;2022-09-27T12:19:14;24.23;;;22.90;;
15454;SDS011;21057;51.024;7.540;2022-09-27T12:21:44;26.20;;;24.30;;
15454;SDS011;21057;51.024;7.540;2022-09-27T12:24:14;25.43;;;24.00;;
15454;SDS011;21057;51.024;7.540;2022-09-27T12:26:46;25.30;;;23.60;;
15454;SDS011;21057;51.024;7.540;2022-09-27T12:29:19;25.43;;;23.90;;
15454;SDS011;21057;51.024;7.540;2022-09-27T12:31:53;24.97;;;23.47;;
15454;SDS011;21057;51.024;7.540;2022-09-27T12:34:25;24.67;;;23.17;;
15454;SDS011;21057;51.024;7.540;2022-09-27T12:37:02;24.33;;;22.73;;
15454;SDS011;21057;51.024;7.540;2022-09-27T12:39:37;24.20;;;22.50;;
15454;SDS011;21057;51.024;7.540;2022-09-27T12:42:15;24.43;;;22.93;;
15454;SDS011;21057;51.024;7.540;2022-09-27T12:44:46;25.27;;;23.77;;
15454;SDS011;21057;51.024;7.540;2022-09-27T12:47:17;25.87;;;24.03;;
15454;SDS011;21057;51.024;7.540;2022-09-27T12:49:54;23.73;;;22.33;;
15454;SDS011;21057;51.024;7.540;2022-09-27T12:52:30;23.60;;;22.20;;
15454;SDS011;21057;51.024;7.540;2022-09-27T12:55:11;26.13;;;23.73;;
15454;SDS011;21057;51.024;7.540;2022-09-27T12:58:19;24.63;;;23.13;;
15454;SDS011;21057;51.024;7.540;2022-09-27T13:01:00;23.60;;;22.10;;
15454;SDS011;21057;51.024;7.540;2022-09-27T13:03:36;26.37;;;24.20;;
15454;SDS011;21057;51.024;7.540;2022-09-27T13:06:21;26.00;;;24.30;;
15454;SDS011;21057;51.024;7.540;2022-09-27T13:09:02;24.67;;;23.00;;
15454;SDS011;21057;51.024;7.540;2022-09-27T13:12:02;23.83;;;22.23;;
15454;SDS011;21057;51.024;7.540;2022-09-27T13:14:38;23.43;;;22.03;;
15454;SDS011;21057;51.024;7.540;2022-09-27T13:23:15;24.93;;;23.33;;
15454;SDS011;21057;51.024;7.540;2022-09-27T13:26:21;22.77;;;21.47;;
15454;SDS011;21057;51.024;7.540;2022-09-27T13:29:18;24.00;;;22.63;;
15454;SDS011;21057;51.024;7.540;2022-09-27T13:34:41;23.50;;;22.10;;
15454;SDS011;21057;51.024;7.540;2022-09-27T13:46:00;25.43;;;23.93;;
15454;SDS011;21057;51.024;7.540;2022-09-27T13:48:36;24.37;;;23.03;;
15454;SDS011;21057;51.024;7.540;2022-09-27T13:51:15;25.40;;;23.93;;
15454;SDS011;21057;51.024;7.540;2022-09-27T13:53:56;26.03;;;24.63;;
15454;SDS011;21057;51.024;7.540;2022-09-27T13:59:18;26.40;;;24.90;;
15454;SDS011;21057;51.024;7.540;2022-09-27T14:01:50;25.53;;;24.13;;
15454;SDS011;21057;51.024;7.540;2022-09-27T14:04:19;27.13;;;25.63;;
15454;SDS011;21057;51.024;7.540;2022-09-27T14:06:49;26.57;;;25.17;;
15454;SDS011;21057;51.024;7.540;2022-09-27T14:09:24;26.03;;;24.63;;
15454;SDS011;21057;51.024;7.540;2022-09-27T14:11:55;25.50;;;24.20;;
15454;SDS011;21057;51.024;7.540;2022-09-27T14:14:25;25.63;;;24.13;;
15454;SDS011;21057;51.024;7.540;2022-09-27T14:16:55;25.23;;;23.83;;
15454;SDS011;21057;51.024;7.540;2022-09-27T14:19:25;25.13;;;23.77;;
15454;SDS011;21057;51.024;7.540;2022-09-27T14:22:10;25.70;;;24.20;;
15454;SDS011;21057;51.024;7.540;2022-09-27T14:24:44;25.13;;;23.63;;
15454;SDS011;21057;51.024;7.540;2022-09-27T14:27:13;24.50;;;23.20;;
15454;SDS011;21057;51.024;7.540;2022-09-27T14:29:43;25.07;;;23.60;;
15454;SDS011;21057;51.024;7.540;2022-09-27T14:32:12;24.57;;;23.07;;
15454;SDS011;21057;51.024;7.540;2022-09-27T14:34:40;24.87;;;23.47;;
15454;SDS011;21057;51.024;7.540;2022-09-27T14:37:17;25.87;;;24.47;;
15454;SDS011;21057;51.024;7.540;2022-09-27T14:40:00;25.17;;;23.77;;
15454;SDS011;21057;51.024;7.540;2022-09-27T14:42:31;24.57;;;23.27;;
15454;SDS011;21057;51.024;7.540;2022-09-27T14:45:03;24.70;;;23.30;;
15454;SDS011;21057;51.024;7.540;2022-09-27T14:47:50;23.70;;;22.20;;
15454;SDS011;21057;51.024;7.540;2022-09-27T14:50:18;23.30;;;22.00;;
15454;SDS011;21057;51.024;7.540;2022-09-27T14:52:48;24.20;;;22.80;;
15454;SDS011;21057;51.024;7.540;2022-09-27T14:55:21;23.73;;;22.33;;
15454;SDS011;21057;51.024;7.540;2022-09-27T14:57:50;23.57;;;21.93;;
15454;SDS011;21057;51.024;7.540;2022-09-27T15:00:23;23.03;;;21.73;;
15454;SDS011;21057;51.024;7.540;2022-09-27T15:02:53;23.23;;;21.77;;
15454;SDS011;21057;51.024;7.540;2022-09-27T15:05:23;23.60;;;22.10;;
15454;SDS011;21057;51.024;7.540;2022-09-27T15:07:52;23.17;;;21.77;;
15454;SDS011;21057;51.024;7.540;2022-09-27T15:10:24;23.37;;;22.07;;
15454;SDS011;21057;51.024;7.540;2022-09-27T15:12:54;23.53;;;22.13;;
15454;SDS011;21057;51.024;7.540;2022-09-27T15:15:24;23.47;;;22.17;;
15454;SDS011;21057;51.024;7.540;2022-09-27T15:17:54;22.73;;;21.43;;
15454;SDS011;21057;51.024;7.540;2022-09-27T15:20:22;24.50;;;23.07;;